sensor_id;sensor_type;location;lat;lon;timestamp;temperature;humidity
12833;DHT22;6483;51.310;4.462;2022-10-17T00:00:40;14.10;99.90
12833;DHT22;6483;51.310;4.462;2022-10-17T00:03:08;14.20;99.90
12833;DHT22;6483;51.310;4.462;2022-10-17T00:05:45;14.30;99.90
12833;DHT22;6483;51.310;4.462;2022-10-17T00:08:15;14.20;99.90
12833;DHT22;6483;51.310;4.462;2022-10-17T00:10:41;14.30;99.90
12833;DHT22;6483;51.310;4.462;2022-10-17T00:13:08;14.30;99.90
12833;DHT22;6483;51.310;4.462;2022-10-17T00:15:46;14.20;99.90
12833;DHT22;6483;51.310;4.462;2022-10-17T00:18:15;14.40;99.90
12833;DHT22;6483;51.310;4.462;2022-10-17T00:20:44;14.40;99.90
12833;DHT22;6483;51.310;4.462;2022-10-17T00:23:10;14.30;99.90
12833;DHT22;6483;51.310;4.462;2022-10-17T00:25:36;14.40;99.90
12833;DHT22;6483;51.310;4.462;2022-10-17T00:28:02;14.50;99.90
12833;DHT22;6483;51.310;4.462;2022-10-17T00:30:28;14.50;99.90
12833;DHT22;6483;51.310;4.462;2022-10-17T00:32:54;14.50;99.90
12833;DHT22;6483;51.310;4.462;2022-10-17T00:35:19;14.40;99.90
12833;DHT22;6483;51.310;4.462;2022-10-17T00:37:48;14.50;99.90
12833;DHT22;6483;51.310;4.462;2022-10-17T00:40:13;14.50;99.90
12833;DHT22;6483;51.310;4.462;2022-10-17T00:42:39;14.40;99.90
12833;DHT22;6483;51.310;4.462;2022-10-17T00:45:21;14.40;99.90
12833;DHT22;6483;51.310;4.462;2022-10-17T00:47:53;14.40;99.90
12833;DHT22;6483;51.310;4.462;2022-10-17T00:50:20;14.60;99.90
12833;DHT22;6483;51.310;4.462;2022-10-17T00:52:48;14.60;99.90
12833;DHT22;6483;51.310;4.462;2022-10-17T00:55:27;14.60;99.90
12833;DHT22;6483;51.310;4.462;2022-10-17T00:57:54;14.70;99.90
12833;DHT22;6483;51.310;4.462;2022-10-17T01:00:21;14.80;99.90
12833;DHT22;6483;51.310;4.462;2022-10-17T01:02:48;14.90;99.90
12833;DHT22;6483;51.310;4.462;2022-10-17T01:05:14;14.90;99.90
12833;DHT22;6483;51.310;4.462;2022-10-17T01:07:41;14.90;99.90
12833;DHT22;6483;51.310;4.462;2022-10-17T01:10:11;14.90;99.90
12833;DHT22;6483;51.310;4.462;2022-10-17T01:15:47;15.00;99.90
12833;DHT22;6483;51.310;4.462;2022-10-17T01:21:32;15.10;99.90
12833;DHT22;6483;51.310;4.462;2022-10-17T01:25:14;15.10;99.90
12833;DHT22;6483;51.310;4.462;2022-10-17T01:27:36;15.10;99.90
12833;DHT22;6483;51.310;4.462;2022-10-17T01:33:23;15.10;99.90
12833;DHT22;6483;51.310;4.462;2022-10-17T01:36:05;15.10;99.90
12833;DHT22;6483;51.310;4.462;2022-10-17T01:38:47;15.20;99.90
12833;DHT22;6483;51.310;4.462;2022-10-17T01:41:31;15.20;99.90
12833;DHT22;6483;51.310;4.462;2022-10-17T01:47:19;15.20;99.90
12833;DHT22;6483;51.310;4.462;2022-10-17T01:49:48;15.10;99.90
12833;DHT22;6483;51.310;4.462;2022-10-17T01:52:22;15.20;99.90
12833;DHT22;6483;51.310;4.462;2022-10-17T01:54:52;15.20;99.90
12833;DHT22;6483;51.310;4.462;2022-10-17T01:57:33;15.20;99.90
12833;DHT22;6483;51.310;4.462;2022-10-17T02:00:07;15.30;99.90
12833;DHT22;6483;51.310;4.462;2022-10-17T02:02:34;15.30;99.90
12833;DHT22;6483;51.310;4.462;2022-10-17T02:05:04;15.30;99.90
12833;DHT22;6483;51.310;4.462;2022-10-17T02:07:30;15.30;99.90
12833;DHT22;6483;51.310;4.462;2022-10-17T02:09:56;15.30;99.90
12833;DHT22;6483;51.310;4.462;2022-10-17T02:12:36;15.20;99.90
12833;DHT22;6483;51.310;4.462;2022-10-17T02:20:56;15.30;99.90
12833;DHT22;6483;51.310;4.462;2022-10-17T02:23:47;15.30;99.90
12833;DHT22;6483;51.310;4.462;2022-10-17T02:26:52;15.30;99.90
12833;DHT22;6483;51.310;4.462;2022-10-17T02:29:33;15.40;99.90
12833;DHT22;6483;51.310;4.462;2022-10-17T02:32:33;15.30;99.90
12833;DHT22;6483;51.310;4.462;2022-10-17T02:35:01;15.20;99.90
12833;DHT22;6483;51.310;4.462;2022-10-17T02:37:28;15.20;99.90
12833;DHT22;6483;51.310;4.462;2022-10-17T02:39:59;15.30;99.90
12833;DHT22;6483;51.310;4.462;2022-10-17T02:42:26;15.30;99.90
12833;DHT22;6483;51.310;4.462;2022-10-17T02:44:54;15.30;99.90
12833;DHT22;6483;51.310;4.462;2022-10-17T02:47:26;15.30;99.90
12833;DHT22;6483;51.310;4.462;2022-10-17T02:49:55;15.30;99.90
12833;DHT22;6483;51.310;4.462;2022-10-17T02:55:11;15.40;99.90
12833;DHT22;6483;51.310;4.462;2022-10-17T03:00:16;15.30;99.90
12833;DHT22;6483;51.310;4.462;2022-10-17T03:02:45;15.30;99.90
12833;DHT22;6483;51.310;4.462;2022-10-17T03:05:13;15.40;99.90
12833;DHT22;6483;51.310;4.462;2022-10-17T03:07:39;15.50;99.90
12833;DHT22;6483;51.310;4.462;2022-10-17T03:10:06;15.50;99.90
12833;DHT22;6483;51.310;4.462;2022-10-17T03:12:35;15.40;99.90
12833;DHT22;6483;51.310;4.462;2022-10-17T03:15:01;15.30;99.90
12833;DHT22;6483;51.310;4.462;2022-10-17T03:17:26;15.40;99.90
12833;DHT22;6483;51.310;4.462;2022-10-17T03:19:55;15.40;99.90
12833;DHT22;6483;51.310;4.462;2022-10-17T03:22:21;15.40;99.90
12833;DHT22;6483;51.310;4.462;2022-10-17T03:24:49;15.50;99.90
12833;DHT22;6483;51.310;4.462;2022-10-17T03:27:15;15.50;99.90
12833;DHT22;6483;51.310;4.462;2022-10-17T03:29:41;15.60;99.90
12833;DHT22;6483;51.310;4.462;2022-10-17T03:32:07;15.60;99.90
12833;DHT22;6483;51.310;4.462;2022-10-17T03:34:32;15.60;99.90
12833;DHT22;6483;51.310;4.462;2022-10-17T03:36:59;15.70;99.90
12833;DHT22;6483;51.310;4.462;2022-10-17T03:39:31;15.70;99.90
12833;DHT22;6483;51.310;4.462;2022-10-17T03:41:56;15.80;99.90
12833;DHT22;6483;51.310;4.462;2022-10-17T03:44:22;15.80;99.90
12833;DHT22;6483;51.310;4.462;2022-10-17T03:46:48;15.80;99.90
12833;DHT22;6483;51.310;4.462;2022-10-17T03:49:13;15.70;99.90
12833;DHT22;6483;51.310;4.462;2022-10-17T03:51:39;15.80;99.90
12833;DHT22;6483;51.310;4.462;2022-10-17T03:54:08;15.70;99.90
12833;DHT22;6483;51.310;4.462;2022-10-17T03:56:33;15.70;99.90
12833;DHT22;6483;51.310;4.462;2022-10-17T03:58:59;15.80;99.90
12833;DHT22;6483;51.310;4.462;2022-10-17T04:01:48;15.90;99.90
12833;DHT22;6483;51.310;4.462;2022-10-17T04:04:14;15.90;99.90
12833;DHT22;6483;51.310;4.462;2022-10-17T04:06:40;16.30;99.90
12833;DHT22;6483;51.310;4.462;2022-10-17T04:09:06;15.90;99.90
12833;DHT22;6483;51.310;4.462;2022-10-17T04:11:33;16.10;99.90
12833;DHT22;6483;51.310;4.462;2022-10-17T04:14:02;16.00;99.90
12833;DHT22;6483;51.310;4.462;2022-10-17T04:16:28;16.00;99.90
12833;DHT22;6483;51.310;4.462;2022-10-17T04:18:55;16.00;99.90
12833;DHT22;6483;51.310;4.462;2022-10-17T04:21:22;16.00;99.90
12833;DHT22;6483;51.310;4.462;2022-10-17T04:23:52;16.00;99.90
12833;DHT22;6483;51.310;4.462;2022-10-17T04:26:23;16.00;99.90
12833;DHT22;6483;51.310;4.462;2022-10-17T04:28:50;16.10;99.90
12833;DHT22;6483;51.310;4.462;2022-10-17T04:31:19;16.10;99.90
12833;DHT22;6483;51.310;4.462;2022-10-17T04:33:51;16.10;99.90
12833;DHT22;6483;51.310;4.462;2022-10-17T04:36:18;16.10;99.90
12833;DHT22;6483;51.310;4.462;2022-10-17T04:38:45;16.10;99.90
12833;DHT22;6483;51.310;4.462;2022-10-17T04:41:16;16.10;99.90
12833;DHT22;6483;51.310;4.462;2022-10-17T04:43:42;16.00;99.90
12833;DHT22;6483;51.310;4.462;2022-10-17T04:46:27;16.00;99.90
12833;DHT22;6483;51.310;4.462;2022-10-17T04:48:53;16.10;99.90
12833;DHT22;6483;51.310;4.462;2022-10-17T04:51:19;16.10;99.90
12833;DHT22;6483;51.310;4.462;2022-10-17T04:53:44;16.10;99.90
12833;DHT22;6483;51.310;4.462;2022-10-17T04:56:13;16.10;99.90
12833;DHT22;6483;51.310;4.462;2022-10-17T04:58:40;16.10;99.90
12833;DHT22;6483;51.310;4.462;2022-10-17T05:01:18;16.20;99.90
12833;DHT22;6483;51.310;4.462;2022-10-17T05:03:44;16.20;99.90
12833;DHT22;6483;51.310;4.462;2022-10-17T05:06:12;16.10;99.90
12833;DHT22;6483;51.310;4.462;2022-10-17T05:08:39;16.10;99.90
12833;DHT22;6483;51.310;4.462;2022-10-17T05:11:07;16.10;99.90
12833;DHT22;6483;51.310;4.462;2022-10-17T05:13:39;16.20;99.90
12833;DHT22;6483;51.310;4.462;2022-10-17T05:16:05;16.10;99.90
12833;DHT22;6483;51.310;4.462;2022-10-17T05:18:30;16.20;99.90
12833;DHT22;6483;51.310;4.462;2022-10-17T05:20:56;16.10;99.90
12833;DHT22;6483;51.310;4.462;2022-10-17T05:23:22;16.20;99.90
12833;DHT22;6483;51.310;4.462;2022-10-17T05:25:53;16.20;99.90
12833;DHT22;6483;51.310;4.462;2022-10-17T05:28:19;16.20;99.90
12833;DHT22;6483;51.310;4.462;2022-10-17T05:30:45;16.20;99.90
12833;DHT22;6483;51.310;4.462;2022-10-17T05:33:11;16.20;99.90
12833;DHT22;6483;51.310;4.462;2022-10-17T05:35:37;16.20;99.90
12833;DHT22;6483;51.310;4.462;2022-10-17T05:38:02;16.20;99.90
12833;DHT22;6483;51.310;4.462;2022-10-17T05:40:31;16.10;99.90
12833;DHT22;6483;51.310;4.462;2022-10-17T05:42:57;16.20;99.90
12833;DHT22;6483;51.310;4.462;2022-10-17T05:45:29;16.20;99.90
12833;DHT22;6483;51.310;4.462;2022-10-17T05:47:54;16.20;99.90
12833;DHT22;6483;51.310;4.462;2022-10-17T05:50:29;16.20;99.90
12833;DHT22;6483;51.310;4.462;2022-10-17T05:52:55;16.20;99.90
12833;DHT22;6483;51.310;4.462;2022-10-17T05:55:23;16.20;99.90
12833;DHT22;6483;51.310;4.462;2022-10-17T05:57:49;16.30;99.90
12833;DHT22;6483;51.310;4.462;2022-10-17T06:00:17;16.30;99.90
12833;DHT22;6483;51.310;4.462;2022-10-17T06:02:45;16.40;99.90
12833;DHT22;6483;51.310;4.462;2022-10-17T06:05:11;16.40;99.90
12833;DHT22;6483;51.310;4.462;2022-10-17T06:07:37;16.50;99.90
12833;DHT22;6483;51.310;4.462;2022-10-17T06:10:04;16.50;99.90
12833;DHT22;6483;51.310;4.462;2022-10-17T06:12:36;16.50;99.90
12833;DHT22;6483;51.310;4.462;2022-10-17T06:15:07;16.50;99.90
12833;DHT22;6483;51.310;4.462;2022-10-17T06:17:32;16.50;99.90
12833;DHT22;6483;51.310;4.462;2022-10-17T06:19:58;16.50;99.90
12833;DHT22;6483;51.310;4.462;2022-10-17T06:22:24;16.60;99.90
12833;DHT22;6483;51.310;4.462;2022-10-17T06:24:49;16.60;99.90
12833;DHT22;6483;51.310;4.462;2022-10-17T06:27:16;16.60;99.90
12833;DHT22;6483;51.310;4.462;2022-10-17T06:29:42;16.50;99.90
12833;DHT22;6483;51.310;4.462;2022-10-17T06:32:08;16.60;99.90
12833;DHT22;6483;51.310;4.462;2022-10-17T06:34:34;16.60;99.90
12833;DHT22;6483;51.310;4.462;2022-10-17T06:36:59;16.70;99.90
12833;DHT22;6483;51.310;4.462;2022-10-17T06:39:25;16.70;99.90
12833;DHT22;6483;51.310;4.462;2022-10-17T06:41:58;16.70;99.90
12833;DHT22;6483;51.310;4.462;2022-10-17T06:44:27;16.80;99.90
12833;DHT22;6483;51.310;4.462;2022-10-17T06:46:56;16.80;99.90
12833;DHT22;6483;51.310;4.462;2022-10-17T06:49:22;16.90;99.90
12833;DHT22;6483;51.310;4.462;2022-10-17T06:51:48;16.80;99.90
12833;DHT22;6483;51.310;4.462;2022-10-17T06:54:17;16.80;99.90
12833;DHT22;6483;51.310;4.462;2022-10-17T06:56:43;16.80;99.90
12833;DHT22;6483;51.310;4.462;2022-10-17T06:59:09;16.80;99.90
12833;DHT22;6483;51.310;4.462;2022-10-17T07:01:35;16.80;99.90
12833;DHT22;6483;51.310;4.462;2022-10-17T07:04:01;16.70;99.90
12833;DHT22;6483;51.310;4.462;2022-10-17T07:06:27;16.70;99.90
12833;DHT22;6483;51.310;4.462;2022-10-17T07:08:52;16.60;99.90
12833;DHT22;6483;51.310;4.462;2022-10-17T07:11:21;16.70;99.90
12833;DHT22;6483;51.310;4.462;2022-10-17T07:13:47;16.70;99.90
12833;DHT22;6483;51.310;4.462;2022-10-17T07:16:14;16.70;99.90
12833;DHT22;6483;51.310;4.462;2022-10-17T07:18:40;16.70;99.90
12833;DHT22;6483;51.310;4.462;2022-10-17T07:21:07;16.80;99.90
12833;DHT22;6483;51.310;4.462;2022-10-17T07:23:39;16.70;99.90
12833;DHT22;6483;51.310;4.462;2022-10-17T07:26:10;16.70;99.90
12833;DHT22;6483;51.310;4.462;2022-10-17T07:28:38;16.70;99.90
12833;DHT22;6483;51.310;4.462;2022-10-17T07:31:08;16.70;99.90
12833;DHT22;6483;51.310;4.462;2022-10-17T07:33:34;16.70;99.90
12833;DHT22;6483;51.310;4.462;2022-10-17T07:36:01;16.80;99.90
12833;DHT22;6483;51.310;4.462;2022-10-17T07:38:27;16.80;99.90
12833;DHT22;6483;51.310;4.462;2022-10-17T07:40:58;16.70;99.90
12833;DHT22;6483;51.310;4.462;2022-10-17T07:43:24;16.80;99.90
12833;DHT22;6483;51.310;4.462;2022-10-17T07:45:50;16.80;99.90
12833;DHT22;6483;51.310;4.462;2022-10-17T07:48:17;16.80;99.90
12833;DHT22;6483;51.310;4.462;2022-10-17T07:50:46;16.70;99.90
12833;DHT22;6483;51.310;4.462;2022-10-17T07:53:16;16.70;99.90
12833;DHT22;6483;51.310;4.462;2022-10-17T07:55:48;16.70;99.90
12833;DHT22;6483;51.310;4.462;2022-10-17T07:58:14;16.70;99.90
12833;DHT22;6483;51.310;4.462;2022-10-17T08:00:43;16.70;99.90
12833;DHT22;6483;51.310;4.462;2022-10-17T08:03:13;16.70;99.90
12833;DHT22;6483;51.310;4.462;2022-10-17T08:05:39;16.60;99.90
12833;DHT22;6483;51.310;4.462;2022-10-17T08:08:07;16.70;99.90
12833;DHT22;6483;51.310;4.462;2022-10-17T08:10:33;16.70;99.90
12833;DHT22;6483;51.310;4.462;2022-10-17T08:12:58;16.70;99.90
12833;DHT22;6483;51.310;4.462;2022-10-17T08:15:26;16.70;99.90
12833;DHT22;6483;51.310;4.462;2022-10-17T08:17:55;16.70;99.90
12833;DHT22;6483;51.310;4.462;2022-10-17T08:20:24;16.70;99.90
12833;DHT22;6483;51.310;4.462;2022-10-17T08:22:53;16.70;99.90
12833;DHT22;6483;51.310;4.462;2022-10-17T08:25:22;16.80;99.90
12833;DHT22;6483;51.310;4.462;2022-10-17T08:27:49;16.80;99.90
12833;DHT22;6483;51.310;4.462;2022-10-17T08:30:15;16.90;99.90
12833;DHT22;6483;51.310;4.462;2022-10-17T08:32:47;16.80;99.90
12833;DHT22;6483;51.310;4.462;2022-10-17T08:35:16;16.80;99.90
12833;DHT22;6483;51.310;4.462;2022-10-17T08:37:41;16.80;99.90
12833;DHT22;6483;51.310;4.462;2022-10-17T08:40:16;16.80;99.90
12833;DHT22;6483;51.310;4.462;2022-10-17T08:43:15;16.80;99.90
12833;DHT22;6483;51.310;4.462;2022-10-17T08:45:56;16.70;99.90
12833;DHT22;6483;51.310;4.462;2022-10-17T08:48:42;16.70;99.90
12833;DHT22;6483;51.310;4.462;2022-10-17T08:51:32;16.80;99.90
12833;DHT22;6483;51.310;4.462;2022-10-17T08:54:21;16.70;99.90
12833;DHT22;6483;51.310;4.462;2022-10-17T08:56:52;16.70;99.90
12833;DHT22;6483;51.310;4.462;2022-10-17T08:59:26;16.80;99.90
12833;DHT22;6483;51.310;4.462;2022-10-17T09:04:45;16.90;99.90
12833;DHT22;6483;51.310;4.462;2022-10-17T09:07:35;17.00;99.90
12833;DHT22;6483;51.310;4.462;2022-10-17T09:13:15;16.90;99.90
12833;DHT22;6483;51.310;4.462;2022-10-17T09:18:35;16.90;99.90
12833;DHT22;6483;51.310;4.462;2022-10-17T09:24:02;17.20;99.90
12833;DHT22;6483;51.310;4.462;2022-10-17T09:26:29;17.30;99.90
12833;DHT22;6483;51.310;4.462;2022-10-17T09:28:59;17.30;99.90
12833;DHT22;6483;51.310;4.462;2022-10-17T09:31:31;17.30;99.90
12833;DHT22;6483;51.310;4.462;2022-10-17T09:34:00;17.30;99.90
12833;DHT22;6483;51.310;4.462;2022-10-17T09:36:29;17.20;99.90
12833;DHT22;6483;51.310;4.462;2022-10-17T09:38:59;17.20;99.90
12833;DHT22;6483;51.310;4.462;2022-10-17T09:41:39;17.20;99.90
12833;DHT22;6483;51.310;4.462;2022-10-17T09:44:24;17.20;99.90
12833;DHT22;6483;51.310;4.462;2022-10-17T09:49:38;17.20;99.90
12833;DHT22;6483;51.310;4.462;2022-10-17T09:52:50;17.20;99.90
12833;DHT22;6483;51.310;4.462;2022-10-17T09:55:04;17.20;99.90
12833;DHT22;6483;51.310;4.462;2022-10-17T09:58:01;17.10;99.90
12833;DHT22;6483;51.310;4.462;2022-10-17T10:00:33;17.00;99.90
12833;DHT22;6483;51.310;4.462;2022-10-17T10:03:18;17.10;99.90
12833;DHT22;6483;51.310;4.462;2022-10-17T10:06:05;17.10;99.90
12833;DHT22;6483;51.310;4.462;2022-10-17T10:08:37;17.30;99.90
12833;DHT22;6483;51.310;4.462;2022-10-17T10:11:14;17.30;99.90
12833;DHT22;6483;51.310;4.462;2022-10-17T10:13:43;17.20;99.90
12833;DHT22;6483;51.310;4.462;2022-10-17T10:16:33;17.30;99.90
12833;DHT22;6483;51.310;4.462;2022-10-17T10:19:24;17.30;99.90
12833;DHT22;6483;51.310;4.462;2022-10-17T10:22:17;17.30;99.90
12833;DHT22;6483;51.310;4.462;2022-10-17T10:24:42;17.30;99.90
12833;DHT22;6483;51.310;4.462;2022-10-17T10:27:16;17.20;99.90
12833;DHT22;6483;51.310;4.462;2022-10-17T10:29:48;17.20;99.90
12833;DHT22;6483;51.310;4.462;2022-10-17T10:32:24;17.30;99.90
12833;DHT22;6483;51.310;4.462;2022-10-17T10:35:14;17.30;99.90
12833;DHT22;6483;51.310;4.462;2022-10-17T10:37:48;17.40;99.90
12833;DHT22;6483;51.310;4.462;2022-10-17T10:40:22;17.40;99.90
12833;DHT22;6483;51.310;4.462;2022-10-17T10:42:55;17.40;99.90
12833;DHT22;6483;51.310;4.462;2022-10-17T10:45:39;17.50;99.90
12833;DHT22;6483;51.310;4.462;2022-10-17T10:51:13;17.50;99.90
12833;DHT22;6483;51.310;4.462;2022-10-17T10:54:15;17.50;99.90
12833;DHT22;6483;51.310;4.462;2022-10-17T10:57:03;17.40;99.90
12833;DHT22;6483;51.310;4.462;2022-10-17T10:59:57;17.30;99.90
12833;DHT22;6483;51.310;4.462;2022-10-17T11:19:42;18.10;99.90
12833;DHT22;6483;51.310;4.462;2022-10-17T11:22:40;18.40;99.90
12833;DHT22;6483;51.310;4.462;2022-10-17T11:25:30;18.50;99.90
12833;DHT22;6483;51.310;4.462;2022-10-17T11:27:59;18.70;99.90
12833;DHT22;6483;51.310;4.462;2022-10-17T11:30:27;18.80;99.90
12833;DHT22;6483;51.310;4.462;2022-10-17T11:33:00;18.90;99.90
12833;DHT22;6483;51.310;4.462;2022-10-17T11:35:39;18.90;99.90
12833;DHT22;6483;51.310;4.462;2022-10-17T11:41:13;18.70;99.90
12833;DHT22;6483;51.310;4.462;2022-10-17T11:43:52;18.60;99.90
12833;DHT22;6483;51.310;4.462;2022-10-17T11:46:24;18.50;99.90
12833;DHT22;6483;51.310;4.462;2022-10-17T11:51:26;18.60;99.90
12833;DHT22;6483;51.310;4.462;2022-10-17T12:00:03;18.80;99.90
12833;DHT22;6483;51.310;4.462;2022-10-17T12:02:48;18.70;99.90
12833;DHT22;6483;51.310;4.462;2022-10-17T12:13:53;18.40;99.90
12833;DHT22;6483;51.310;4.462;2022-10-17T12:24:40;18.20;99.90
12833;DHT22;6483;51.310;4.462;2022-10-17T12:27:34;18.30;99.90
12833;DHT22;6483;51.310;4.462;2022-10-17T12:30:29;18.40;99.90
12833;DHT22;6483;51.310;4.462;2022-10-17T12:33:29;18.50;99.90
12833;DHT22;6483;51.310;4.462;2022-10-17T12:49:41;18.30;99.90
12833;DHT22;6483;51.310;4.462;2022-10-17T12:52:54;18.30;99.90
12833;DHT22;6483;51.310;4.462;2022-10-17T12:55:26;18.40;99.90
12833;DHT22;6483;51.310;4.462;2022-10-17T12:58:00;18.50;99.90
12833;DHT22;6483;51.310;4.462;2022-10-17T13:00:54;18.70;99.90
12833;DHT22;6483;51.310;4.462;2022-10-17T13:03:39;18.70;99.90
12833;DHT22;6483;51.310;4.462;2022-10-17T13:06:21;18.80;99.90
12833;DHT22;6483;51.310;4.462;2022-10-17T13:08:52;19.00;99.90
12833;DHT22;6483;51.310;4.462;2022-10-17T13:11:27;19.00;99.90
12833;DHT22;6483;51.310;4.462;2022-10-17T13:13:57;19.00;99.90
12833;DHT22;6483;51.310;4.462;2022-10-17T13:16:35;19.00;99.90
12833;DHT22;6483;51.310;4.462;2022-10-17T13:19:03;19.10;99.90
12833;DHT22;6483;51.310;4.462;2022-10-17T13:21:36;20.90;99.90
12833;DHT22;6483;51.310;4.462;2022-10-17T13:24:21;19.40;99.90
12833;DHT22;6483;51.310;4.462;2022-10-17T13:26:47;19.40;99.90
12833;DHT22;6483;51.310;4.462;2022-10-17T13:29:14;19.30;99.90
12833;DHT22;6483;51.310;4.462;2022-10-17T13:31:43;19.30;99.90
12833;DHT22;6483;51.310;4.462;2022-10-17T13:34:20;19.30;99.90
12833;DHT22;6483;51.310;4.462;2022-10-17T13:36:49;19.60;99.90
12833;DHT22;6483;51.310;4.462;2022-10-17T13:39:18;19.80;99.90
12833;DHT22;6483;51.310;4.462;2022-10-17T13:41:45;20.00;99.90
12833;DHT22;6483;51.310;4.462;2022-10-17T13:44:18;20.00;99.90
12833;DHT22;6483;51.310;4.462;2022-10-17T13:46:45;20.00;99.90
12833;DHT22;6483;51.310;4.462;2022-10-17T13:51:59;19.70;99.90
12833;DHT22;6483;51.310;4.462;2022-10-17T13:54:41;19.60;99.90
12833;DHT22;6483;51.310;4.462;2022-10-17T13:57:24;19.50;99.90
12833;DHT22;6483;51.310;4.462;2022-10-17T13:59:54;19.60;99.90
12833;DHT22;6483;51.310;4.462;2022-10-17T14:02:32;19.90;99.90
12833;DHT22;6483;51.310;4.462;2022-10-17T14:05:09;20.20;99.90
12833;DHT22;6483;51.310;4.462;2022-10-17T14:10:22;20.60;99.90
12833;DHT22;6483;51.310;4.462;2022-10-17T14:12:49;20.60;99.90
12833;DHT22;6483;51.310;4.462;2022-10-17T14:15:16;20.60;99.90
12833;DHT22;6483;51.310;4.462;2022-10-17T14:17:43;20.70;99.90
12833;DHT22;6483;51.310;4.462;2022-10-17T14:20:20;20.70;99.90
12833;DHT22;6483;51.310;4.462;2022-10-17T14:22:46;20.70;99.90
12833;DHT22;6483;51.310;4.462;2022-10-17T14:25:35;20.90;99.90
12833;DHT22;6483;51.310;4.462;2022-10-17T14:30:38;21.00;99.90
12833;DHT22;6483;51.310;4.462;2022-10-17T14:33:12;21.10;99.90
12833;DHT22;6483;51.310;4.462;2022-10-17T14:35:39;21.10;99.90
12833;DHT22;6483;51.310;4.462;2022-10-17T14:38:13;21.20;99.90
12833;DHT22;6483;51.310;4.462;2022-10-17T14:40:49;21.00;99.90
12833;DHT22;6483;51.310;4.462;2022-10-17T14:43:20;21.00;99.90
12833;DHT22;6483;51.310;4.462;2022-10-17T14:45:47;20.90;99.90
12833;DHT22;6483;51.310;4.462;2022-10-17T14:48:20;20.80;99.90
12833;DHT22;6483;51.310;4.462;2022-10-17T14:51:15;20.60;99.90
12833;DHT22;6483;51.310;4.462;2022-10-17T14:53:43;20.30;99.90
12833;DHT22;6483;51.310;4.462;2022-10-17T14:56:35;20.10;99.90
12833;DHT22;6483;51.310;4.462;2022-10-17T14:59:04;20.10;99.90
12833;DHT22;6483;51.310;4.462;2022-10-17T15:01:31;20.00;99.90
12833;DHT22;6483;51.310;4.462;2022-10-17T15:03:57;19.80;99.90
12833;DHT22;6483;51.310;4.462;2022-10-17T15:06:27;19.70;99.90
12833;DHT22;6483;51.310;4.462;2022-10-17T15:08:54;19.70;99.90
12833;DHT22;6483;51.310;4.462;2022-10-17T15:11:21;19.50;99.90
12833;DHT22;6483;51.310;4.462;2022-10-17T15:13:46;19.40;99.90
12833;DHT22;6483;51.310;4.462;2022-10-17T15:16:21;19.40;99.90
12833;DHT22;6483;51.310;4.462;2022-10-17T15:18:50;19.40;99.90
12833;DHT22;6483;51.310;4.462;2022-10-17T15:21:18;19.20;99.90
12833;DHT22;6483;51.310;4.462;2022-10-17T15:23:46;19.10;99.90
12833;DHT22;6483;51.310;4.462;2022-10-17T15:26:31;19.10;99.90
12833;DHT22;6483;51.310;4.462;2022-10-17T15:28:58;19.00;99.90
12833;DHT22;6483;51.310;4.462;2022-10-17T15:31:28;18.90;99.90
12833;DHT22;6483;51.310;4.462;2022-10-17T15:33:56;18.90;99.90
12833;DHT22;6483;51.310;4.462;2022-10-17T15:36:38;18.80;99.90
12833;DHT22;6483;51.310;4.462;2022-10-17T15:39:09;18.80;99.90
12833;DHT22;6483;51.310;4.462;2022-10-17T15:41:36;18.70;99.90
12833;DHT22;6483;51.310;4.462;2022-10-17T15:44:02;18.60;99.90
12833;DHT22;6483;51.310;4.462;2022-10-17T15:46:29;18.60;99.90
12833;DHT22;6483;51.310;4.462;2022-10-17T15:49:01;18.50;99.90
12833;DHT22;6483;51.310;4.462;2022-10-17T15:51:27;18.50;99.90
12833;DHT22;6483;51.310;4.462;2022-10-17T15:53:53;18.50;99.90
12833;DHT22;6483;51.310;4.462;2022-10-17T15:56:22;18.50;99.90
12833;DHT22;6483;51.310;4.462;2022-10-17T15:58:52;18.50;99.90
12833;DHT22;6483;51.310;4.462;2022-10-17T16:01:41;18.40;99.90
12833;DHT22;6483;51.310;4.462;2022-10-17T16:04:15;18.40;99.90
12833;DHT22;6483;51.310;4.462;2022-10-17T16:06:42;18.30;99.90
12833;DHT22;6483;51.310;4.462;2022-10-17T16:09:11;18.30;99.90
12833;DHT22;6483;51.310;4.462;2022-10-17T16:11:39;18.20;99.90
12833;DHT22;6483;51.310;4.462;2022-10-17T16:14:11;18.20;99.90
12833;DHT22;6483;51.310;4.462;2022-10-17T16:16:37;19.10;99.90
12833;DHT22;6483;51.310;4.462;2022-10-17T16:19:03;18.00;99.90
12833;DHT22;6483;51.310;4.462;2022-10-17T16:21:35;18.00;99.90
12833;DHT22;6483;51.310;4.462;2022-10-17T16:24:02;18.00;99.90
12833;DHT22;6483;51.310;4.462;2022-10-17T16:26:31;17.90;99.90
12833;DHT22;6483;51.310;4.462;2022-10-17T16:28:57;17.80;99.90
12833;DHT22;6483;51.310;4.462;2022-10-17T16:31:30;17.70;99.90
12833;DHT22;6483;51.310;4.462;2022-10-17T16:34:15;17.60;99.90
12833;DHT22;6483;51.310;4.462;2022-10-17T16:36:40;17.00;99.90
12833;DHT22;6483;51.310;4.462;2022-10-17T16:39:07;17.60;99.90
12833;DHT22;6483;51.310;4.462;2022-10-17T16:41:37;17.50;99.90
12833;DHT22;6483;51.310;4.462;2022-10-17T16:44:09;17.40;99.90
12833;DHT22;6483;51.310;4.462;2022-10-17T16:46:38;17.40;99.90
12833;DHT22;6483;51.310;4.462;2022-10-17T16:49:04;17.30;99.90
12833;DHT22;6483;51.310;4.462;2022-10-17T16:51:31;17.30;99.90
12833;DHT22;6483;51.310;4.462;2022-10-17T16:53:58;17.30;99.90
12833;DHT22;6483;51.310;4.462;2022-10-17T16:56:25;17.30;99.90
12833;DHT22;6483;51.310;4.462;2022-10-17T16:58:54;17.30;99.90
12833;DHT22;6483;51.310;4.462;2022-10-17T17:01:22;17.20;99.90
12833;DHT22;6483;51.310;4.462;2022-10-17T17:03:49;17.10;99.90
12833;DHT22;6483;51.310;4.462;2022-10-17T17:06:26;17.10;99.90
12833;DHT22;6483;51.310;4.462;2022-10-17T17:09:08;17.10;99.90
12833;DHT22;6483;51.310;4.462;2022-10-17T17:11:35;17.10;99.90
12833;DHT22;6483;51.310;4.462;2022-10-17T17:14:03;17.10;99.90
12833;DHT22;6483;51.310;4.462;2022-10-17T17:16:34;17.10;99.90
12833;DHT22;6483;51.310;4.462;2022-10-17T17:19:02;17.00;99.90
12833;DHT22;6483;51.310;4.462;2022-10-17T17:21:32;17.10;99.90
12833;DHT22;6483;51.310;4.462;2022-10-17T17:24:02;17.10;99.90
12833;DHT22;6483;51.310;4.462;2022-10-17T17:26:31;17.10;99.90
12833;DHT22;6483;51.310;4.462;2022-10-17T17:28:58;17.00;99.90
12833;DHT22;6483;51.310;4.462;2022-10-17T17:31:30;16.90;99.90
12833;DHT22;6483;51.310;4.462;2022-10-17T17:33:57;16.90;99.90
12833;DHT22;6483;51.310;4.462;2022-10-17T17:36:28;16.80;99.90
12833;DHT22;6483;51.310;4.462;2022-10-17T17:38:59;16.70;99.90
12833;DHT22;6483;51.310;4.462;2022-10-17T17:41:26;16.70;99.90
12833;DHT22;6483;51.310;4.462;2022-10-17T17:43:55;16.70;99.90
12833;DHT22;6483;51.310;4.462;2022-10-17T17:46:24;16.70;99.90
12833;DHT22;6483;51.310;4.462;2022-10-17T17:48:51;16.60;99.90
12833;DHT22;6483;51.310;4.462;2022-10-17T17:51:20;16.60;99.90
12833;DHT22;6483;51.310;4.462;2022-10-17T17:53:46;16.50;99.90
12833;DHT22;6483;51.310;4.462;2022-10-17T17:56:31;16.60;99.90
12833;DHT22;6483;51.310;4.462;2022-10-17T17:59:00;16.60;99.90
12833;DHT22;6483;51.310;4.462;2022-10-17T18:01:29;16.60;99.90